Time;durP1;ratioP1;P1;durP2;ratioP2;P2;SDS_P1;SDS_P2;PMS_P1;PMS_P2;Temp;Humidity;BMP_temperature;BMP_pressure;BME280_temperature;BME280_humidity;BME280_pressure;Samples;Min_cycle;Max_cycle;Signal;HPM_P1;HPM_P2
2023/12/30 00:02:21;;;;;;;;;;;;;;;18.14;35.74;95553.78;10470298;28;2611;-60
2023/12/30 00:07:22;;;;;;;;;;;;;;;18.14;35.58;95552.97;10469073;28;2108;-60
2023/12/30 00:12:22;;;;;;;;;;;;;;;18.13;35.58;95548.78;10476424;28;5085;-60
2023/12/30 00:17:22;;;;;;;;;;;;;;;18.12;35.65;95560.31;10467086;28;1913;-60
2023/12/30 00:22:23;;;;;;;;;;;;;;;18.12;35.58;95555.88;10468250;28;1965;-60
2023/12/30 00:27:23;;;;;;;;;;;;;;;18.12;35.67;95560.31;10472047;28;2396;-60
2023/12/30 00:32:23;;;;;;;;;;;;;;;18.11;35.62;95561.38;10468756;28;1972;-60
2023/12/30 00:37:23;;;;;;;;;;;;;;;18.10;35.67;95562.41;10472869;28;1925;-60
2023/12/30 00:42:24;;;;;;;;;;;;;;;18.10;35.70;95559.78;10453130;28;2023;-61
2023/12/30 00:47:24;;;;;;;;;;;;;;;18.09;35.73;95558.25;10460097;28;1984;-61
2023/12/30 00:52:24;;;;;;;;;;;;;;;18.09;35.80;95560.84;10462362;28;2052;-61
2023/12/30 00:57:24;;;;;;;;;;;;;;;18.08;35.85;95548.78;10459187;28;2487;-59
2023/12/30 01:02:25;;;;;;;;;;;;;;;18.06;35.70;95548.25;10459947;28;2283;-61
2023/12/30 01:07:25;;;;;;;;;;;;;;;18.07;35.78;95550.63;10458770;28;2216;-60
2023/12/30 01:12:26;;;;;;;;;;;;;;;18.05;35.86;95559.81;10463014;28;5034;-60
2023/12/30 01:17:26;;;;;;;;;;;;;;;18.04;35.92;95555.59;10467176;28;2239;-60
2023/12/30 01:22:26;;;;;;;;;;;;;;;18.04;35.75;95559.00;10460819;28;2003;-60
2023/12/30 01:27:26;;;;;;;;;;;;;;;18.04;35.76;95564.25;10459911;28;2021;-60
2023/12/30 01:32:27;;;;;;;;;;;;;;;18.02;35.86;95568.19;10459315;28;1891;-61
2023/12/30 01:37:27;;;;;;;;;;;;;;;18.03;35.62;95573.19;10456818;28;2030;-60
2023/12/30 01:42:27;;;;;;;;;;;;;;;18.01;35.72;95585.75;10461694;28;1982;-60
2023/12/30 01:47:27;;;;;;;;;;;;;;;18.01;35.80;95590.22;10459630;28;2069;-60
2023/12/30 01:52:28;;;;;;;;;;;;;;;18.01;35.72;95600.72;10455562;28;2271;-60
2023/12/30 01:57:28;;;;;;;;;;;;;;;18.00;35.77;95589.44;10445936;28;1999;-60
2023/12/30 02:02:28;;;;;;;;;;;;;;;17.99;35.65;95589.72;10461187;28;2254;-60
2023/12/30 02:07:28;;;;;;;;;;;;;;;17.98;35.51;95596.78;10460149;28;2097;-60
2023/12/30 02:12:29;;;;;;;;;;;;;;;17.98;35.72;95586.28;10453640;28;5022;-60
2023/12/30 02:17:29;;;;;;;;;;;;;;;17.97;35.69;95592.56;10461519;28;1950;-60
2023/12/30 02:22:29;;;;;;;;;;;;;;;17.97;35.76;95589.19;10461482;28;2059;-61
2023/12/30 02:27:29;;;;;;;;;;;;;;;17.96;35.81;95600.69;10462240;28;2013;-60
2023/12/30 02:32:30;;;;;;;;;;;;;;;17.96;35.71;95598.88;10461765;28;2077;-60
2023/12/30 02:37:30;;;;;;;;;;;;;;;17.96;35.88;95598.88;10466218;28;2226;-60
2023/12/30 02:42:30;;;;;;;;;;;;;;;17.95;35.78;95604.38;10466350;28;2106;-60
2023/12/30 02:47:30;;;;;;;;;;;;;;;17.93;35.78;95604.63;10459123;28;1944;-60
2023/12/30 02:52:31;;;;;;;;;;;;;;;17.93;35.83;95603.84;10439010;28;2088;-60
2023/12/30 02:57:31;;;;;;;;;;;;;;;17.93;35.79;95611.72;10456743;28;1910;-61
2023/12/30 03:02:31;;;;;;;;;;;;;;;17.92;35.80;95618.00;10457026;28;2414;-60
2023/12/30 03:07:36;;;;;;;;;;;;;;;17.89;35.81;95614.06;10455583;28;1943;-60
2023/12/30 03:12:36;;;;;;;;;;;;;;;17.89;35.78;95617.47;10459912;28;5074;-60
2023/12/30 03:17:37;;;;;;;;;;;;;;;17.91;35.76;95619.06;10459108;28;2035;-59
2023/12/30 03:22:37;;;;;;;;;;;;;;;17.88;35.75;95621.16;10456697;28;1948;-60
2023/12/30 03:27:38;;;;;;;;;;;;;;;17.88;35.76;95626.41;10454620;28;2126;-60
2023/12/30 03:32:38;;;;;;;;;;;;;;;17.87;35.84;95627.44;10458798;28;2156;-60
2023/12/30 03:37:38;;;;;;;;;;;;;;;17.87;35.79;95642.38;10458296;28;2093;-60
2023/12/30 03:42:39;;;;;;;;;;;;;;;17.86;35.77;95633.75;10458316;28;1923;-60
2023/12/30 03:47:39;;;;;;;;;;;;;;;17.86;35.92;95636.38;10459145;28;1933;-60
2023/12/30 03:52:39;;;;;;;;;;;;;;;17.85;35.88;95631.34;10460325;28;1912;-61
2023/12/30 03:57:39;;;;;;;;;;;;;;;17.84;35.97;95627.19;10458654;28;2172;-60
2023/12/30 04:02:40;;;;;;;;;;;;;;;17.84;35.94;95635.03;10456717;28;2045;-60
2023/12/30 04:07:40;;;;;;;;;;;;;;;17.83;35.84;95642.13;10458317;28;2064;-60
2023/12/30 04:12:40;;;;;;;;;;;;;;;17.83;36.02;95639.50;10457852;28;4971;-60
2023/12/30 04:17:41;;;;;;;;;;;;;;;17.82;35.89;95640.56;10447742;28;2157;-61
2023/12/30 04:22:41;;;;;;;;;;;;;;;17.81;35.97;95643.41;10467516;28;2012;-60
2023/12/30 04:27:41;;;;;;;;;;;;;;;17.80;35.88;95645.25;10464788;28;1926;-60
2023/12/30 04:32:41;;;;;;;;;;;;;;;17.80;35.91;95645.25;10468479;28;1911;-60
2023/12/30 04:37:42;;;;;;;;;;;;;;;17.79;35.98;95648.91;10476263;28;2057;-60
2023/12/30 04:42:42;;;;;;;;;;;;;;;17.79;35.85;95651.53;10473057;28;1930;-61
2023/12/30 04:47:42;;;;;;;;;;;;;;;17.79;35.86;95656.00;10475883;28;2034;-61
2023/12/30 04:52:43;;;;;;;;;;;;;;;17.77;35.96;95653.63;10465935;28;2317;-61
2023/12/30 04:57:47;;;;;;;;;;;;;;;17.77;35.96;95661.50;10464616;28;2274;-61
2023/12/30 05:02:47;;;;;;;;;;;;;;;17.77;35.84;95658.09;10468665;28;2190;-58
2023/12/30 05:07:48;;;;;;;;;;;;;;;17.76;35.92;95667.00;10460936;28;1975;-61
2023/12/30 05:12:49;;;;;;;;;;;;;;;17.76;35.87;95672.25;10469244;28;4990;-60
2023/12/30 05:17:49;;;;;;;;;;;;;;;17.74;35.85;95674.34;10467509;28;2005;-60
2023/12/30 05:22:49;;;;;;;;;;;;;;;17.75;35.84;95671.47;10466385;28;2039;-60
2023/12/30 05:27:51;;;;;;;;;;;;;;;17.72;35.81;95666.72;10460361;28;1987;-61
2023/12/30 05:32:51;;;;;;;;;;;;;;;17.73;35.79;95676.16;10459725;28;1976;-62
2023/12/30 05:37:51;;;;;;;;;;;;;;;17.72;35.82;95674.56;10449048;28;1962;-60
2023/12/30 05:42:52;;;;;;;;;;;;;;;17.71;35.80;95670.41;10461330;28;1885;-60
2023/12/30 05:47:52;;;;;;;;;;;;;;;17.71;35.65;95674.84;10461942;28;2011;-61
2023/12/30 05:52:52;;;;;;;;;;;;;;;17.70;35.86;95679.28;10460546;28;2555;-60
2023/12/30 05:57:52;;;;;;;;;;;;;;;17.70;35.92;95678.53;10462033;28;1960;-60
2023/12/30 06:02:53;;;;;;;;;;;;;;;17.68;35.95;95691.88;10458463;28;2077;-60
2023/12/30 06:07:53;;;;;;;;;;;;;;;17.69;35.89;95700.53;10457988;28;1971;-60
2023/12/30 06:12:53;;;;;;;;;;;;;;;17.68;35.82;95707.59;10464651;28;5130;-61
2023/12/30 06:17:53;;;;;;;;;;;;;;;17.67;35.76;95706.03;10458982;28;1877;-60
2023/12/30 06:22:54;;;;;;;;;;;;;;;17.67;35.83;95711.28;10460082;28;2116;-60
2023/12/30 06:27:54;;;;;;;;;;;;;;;17.66;35.89;95708.91;10451613;28;1986;-60
2023/12/30 06:32:54;;;;;;;;;;;;;;;17.65;35.78;95715.97;10454976;28;1897;-60
2023/12/30 06:37:54;;;;;;;;;;;;;;;17.65;35.70;95721.22;10458272;28;1985;-60
2023/12/30 06:42:55;;;;;;;;;;;;;;;17.65;35.80;95725.69;10457145;28;1931;-60
2023/12/30 06:47:55;;;;;;;;;;;;;;;17.65;35.80;95729.09;10456082;28;2391;-59
2023/12/30 06:52:55;;;;;;;;;;;;;;;17.65;35.95;95734.34;10456504;28;2077;-60
2023/12/30 06:57:56;;;;;;;;;;;;;;;17.65;35.83;95728.28;10456434;28;1942;-60
2023/12/30 07:02:56;;;;;;;;;;;;;;;17.63;35.90;95723.31;10454560;28;1961;-60
2023/12/30 07:07:59;;;;;;;;;;;;;;;17.63;35.86;95725.94;10461777;28;2037;-60
2023/12/30 07:12:59;;;;;;;;;;;;;;;17.63;35.91;95733.00;10454101;28;5140;-60
2023/12/30 07:17:59;;;;;;;;;;;;;;;17.63;35.90;95736.41;10461044;28;1899;-60
2023/12/30 07:23:02;;;;;;;;;;;;;;;17.62;35.87;95742.69;10457157;28;2104;-60
2023/12/30 07:28:02;;;;;;;;;;;;;;;17.61;35.96;95742.94;10457136;28;2020;-60
2023/12/30 07:33:02;;;;;;;;;;;;;;;17.60;36.06;95765.75;10459651;28;2058;-60
2023/12/30 07:38:03;;;;;;;;;;;;;;;17.60;35.91;95762.34;10453948;28;2113;-61
2023/12/30 07:43:04;;;;;;;;;;;;;;;17.59;36.01;95772.03;10454501;28;2414;-60
2023/12/30 07:48:04;;;;;;;;;;;;;;;17.59;36.03;95768.63;10454990;28;2270;-60
2023/12/30 07:53:04;;;;;;;;;;;;;;;17.58;36.07;95774.91;10457445;28;2056;-60
2023/12/30 07:58:04;;;;;;;;;;;;;;;17.58;36.14;95783.56;10468456;28;2059;-61
2023/12/30 08:03:05;;;;;;;;;;;;;;;17.58;36.02;95791.41;10467674;28;1943;-61
2023/12/30 08:08:12;;;;;;;;;;;;;;;17.56;36.17;95775.16;10464128;28;1967;-60
2023/12/30 08:13:13;;;;;;;;;;;;;;;17.56;36.18;95767.28;10463801;28;5018;-59
2023/12/30 08:18:13;;;;;;;;;;;;;;;17.58;36.12;95777.53;10465583;28;1872;-59
2023/12/30 08:23:13;;;;;;;;;;;;;;;17.58;36.19;95777.53;10462458;28;2058;-59
2023/12/30 08:28:13;;;;;;;;;;;;;;;17.58;36.17;95778.31;10463126;28;2291;-59
2023/12/30 08:33:14;;;;;;;;;;;;;;;17.59;36.31;95786.97;10464360;28;1999;-60
2023/12/30 08:38:15;;;;;;;;;;;;;;;17.60;36.36;95789.34;10467094;28;2370;-60
2023/12/30 08:43:15;;;;;;;;;;;;;;;17.60;36.51;95789.34;10457621;28;2205;-60
2023/12/30 08:48:16;;;;;;;;;;;;;;;17.62;36.47;95802.22;10458621;28;2175;-60
2023/12/30 08:53:18;;;;;;;;;;;;;;;17.62;36.53;95797.75;10456559;28;1981;-60
2023/12/30 08:58:18;;;;;;;;;;;;;;;17.62;36.60;95797.75;10467082;28;2353;-60
2023/12/30 09:03:18;;;;;;;;;;;;;;;17.63;36.73;95801.16;10459675;28;2123;-60
2023/12/30 09:08:19;;;;;;;;;;;;;;;17.65;36.83;95801.69;10460994;28;1935;-60
2023/12/30 09:13:19;;;;;;;;;;;;;;;17.65;36.85;95804.31;10465037;28;5061;-60
2023/12/30 09:18:19;;;;;;;;;;;;;;;17.65;36.74;95801.69;10467273;28;2242;-60
2023/12/30 09:23:19;;;;;;;;;;;;;;;17.68;36.70;95807.22;10456843;28;2072;-61
2023/12/30 09:28:20;;;;;;;;;;;;;;;17.70;36.67;95806.97;10459861;28;2080;-61
2023/12/30 09:33:20;;;;;;;;;;;;;;;17.70;36.68;95818.22;10457883;28;2096;-60
2023/12/30 09:38:22;;;;;;;;;;;;;;;17.72;36.70;95813.53;10456197;28;1904;-60
2023/12/30 09:43:24;;;;;;;;;;;;;;;17.72;36.70;95818.75;10461791;28;2071;-61
2023/12/30 09:48:25;;;;;;;;;;;;;;;17.72;36.55;95808.28;10462529;28;1946;-59
2023/12/30 09:53:26;;;;;;;;;;;;;;;17.71;36.78;95806.72;10459609;28;1945;-60
2023/12/30 09:58:26;;;;;;;;;;;;;;;17.72;36.69;95797.78;10457265;28;2585;-60
2023/12/30 10:03:28;;;;;;;;;;;;;;;17.73;36.86;95796.75;10466018;28;1994;-61
2023/12/30 10:08:28;;;;;;;;;;;;;;;17.75;36.82;95791.25;10460831;28;2205;-60
2023/12/30 10:13:28;;;;;;;;;;;;;;;17.76;36.79;95777.13;10456810;28;5065;-60
2023/12/30 10:18:29;;;;;;;;;;;;;;;17.76;37.03;95788.38;10461439;28;1907;-61
2023/12/30 10:23:33;;;;;;;;;;;;;;;17.76;37.05;95777.88;10446917;28;2249;-60
2023/12/30 10:28:33;;;;;;;;;;;;;;;17.76;37.02;95767.41;10459217;28;2025;-60
2023/12/30 10:33:34;;;;;;;;;;;;;;;17.77;37.05;95765.56;10459290;28;1965;-61
2023/12/30 10:38:37;;;;;;;;;;;;;;;17.78;37.25;95759.31;10459296;28;2131;-61
2023/12/30 10:43:38;;;;;;;;;;;;;;;17.79;37.17;95761.66;10461683;28;1966;-61
2023/12/30 10:48:55;;;;;;;;;;;;;;;17.79;37.09;95756.41;10467151;28;1906;-61
2023/12/30 10:54:09;;;;;;;;;;;;;;;17.80;37.11;95754.59;10457044;28;2096;-61
2023/12/30 10:59:09;;;;;;;;;;;;;;;17.81;37.19;95749.09;10444179;28;2097;-61
2023/12/30 11:04:14;;;;;;;;;;;;;;;17.82;37.17;95755.13;10445005;28;2228;-60
2023/12/30 11:09:14;;;;;;;;;;;;;;;17.81;37.23;95740.41;10439421;28;1993;-60
2023/12/30 11:14:15;;;;;;;;;;;;;;;17.81;37.24;95743.84;10455382;28;5025;-61
2023/12/30 11:19:31;;;;;;;;;;;;;;;17.81;37.44;95735.97;10456473;28;2081;-60
2023/12/30 11:24:31;;;;;;;;;;;;;;;17.82;37.48;95734.94;10459766;28;1907;-61
2023/12/30 11:29:34;;;;;;;;;;;;;;;17.82;37.29;95724.47;10455202;28;2053;-61
2023/12/30 11:34:34;;;;;;;;;;;;;;;17.82;37.48;95716.59;10456927;28;2213;-60
2023/12/30 11:39:38;;;;;;;;;;;;;;;17.84;37.45;95725.00;10458015;28;2045;-60
2023/12/30 11:44:38;;;;;;;;;;;;;;;17.85;37.52;95715.25;10446652;28;2432;-60
2023/12/30 11:49:40;;;;;;;;;;;;;;;17.87;37.38;95721.84;10456006;28;1996;-60
2023/12/30 11:54:40;;;;;;;;;;;;;;;17.88;37.56;95712.94;10462271;28;1828;-59
2023/12/30 11:59:41;;;;;;;;;;;;;;;17.88;37.44;95720.81;10457907;28;1945;-60
2023/12/30 12:04:42;;;;;;;;;;;;;;;17.89;37.65;95714.50;10454939;28;1933;-58
2023/12/30 12:09:43;;;;;;;;;;;;;;;17.89;37.49;95717.13;10463768;28;1948;-60
2023/12/30 12:14:48;;;;;;;;;;;;;;;17.91;37.51;95713.47;10439405;28;2045;-60
2023/12/30 12:19:50;;;;;;;;;;;;;;;17.92;37.49;95710.59;10466042;28;1947;-61
2023/12/30 12:24:51;;;;;;;;;;;;;;;17.93;37.50;95704.28;10444488;28;2072;-60
2023/12/30 12:29:54;;;;;;;;;;;;;;;17.96;37.55;95702.97;10460116;28;2774;-60
2023/12/30 12:34:54;;;;;;;;;;;;;;;17.97;37.63;95704.56;10461117;28;1889;-60
2023/12/30 12:39:54;;;;;;;;;;;;;;;17.99;37.52;95694.59;10463352;28;1978;-60
2023/12/30 12:44:55;;;;;;;;;;;;;;;17.98;37.73;95688.56;10470985;28;2088;-60
2023/12/30 12:49:55;;;;;;;;;;;;;;;18.00;37.72;95694.34;10460650;28;2270;-60
2023/12/30 12:54:55;;;;;;;;;;;;;;;18.02;37.73;95686.22;10450776;28;2084;-60
2023/12/30 12:59:56;;;;;;;;;;;;;;;18.02;37.78;95681.75;10468126;28;2053;-62
2023/12/30 13:04:56;;;;;;;;;;;;;;;18.03;37.80;95682.56;10462645;28;1937;-61
2023/12/30 13:10:00;;;;;;;;;;;;;;;18.04;37.81;95686.75;10466341;28;2368;-61
2023/12/30 13:15:00;;;;;;;;;;;;;;;18.03;37.86;95682.56;10439567;28;5224;-61
2023/12/30 13:20:00;;;;;;;;;;;;;;;18.05;37.87;95680.47;10465187;28;2032;-61
2023/12/30 13:25:01;;;;;;;;;;;;;;;18.05;38.01;95677.84;10459805;28;1965;-61
2023/12/30 13:30:01;;;;;;;;;;;;;;;18.08;38.08;95669.44;10458461;28;1965;-62
2023/12/30 13:35:02;;;;;;;;;;;;;;;18.09;38.25;95676.28;10454939;28;2053;-61
2023/12/30 13:40:08;;;;;;;;;;;;;;;18.11;38.18;95674.19;10458940;28;2049;-59
2023/12/30 13:45:10;;;;;;;;;;;;;;;18.11;38.03;95668.94;10466760;28;2071;-61
2023/12/30 13:55:13;;;;;;;;;;;;;;;18.13;37.87;95661.59;10460222;28;1907;-61
2023/12/30 14:00:15;;;;;;;;;;;;;;;18.10;38.08;95667.34;10454869;28;2147;-62
2023/12/30 14:05:26;;;;;;;;;;;;;;;18.09;38.06;95665.78;10457778;28;1977;-61
2023/12/30 14:10:26;;;;;;;;;;;;;;;18.06;38.52;95667.09;10443339;28;2330;-61
2023/12/30 14:15:27;;;;;;;;;;;;;;;18.06;38.27;95667.09;10457800;28;5212;-61
2023/12/30 14:20:27;;;;;;;;;;;;;;;18.05;38.06;95668.13;10454509;28;1968;-59
2023/12/30 14:25:29;;;;;;;;;;;;;;;18.02;37.95;95671.28;10451447;28;2413;-61
2023/12/30 14:30:30;;;;;;;;;;;;;;;18.00;37.95;95662.88;10456774;28;2056;-61
2023/12/30 14:35:30;;;;;;;;;;;;;;;17.99;37.90;95658.66;10443571;28;2534;-61
2023/12/30 14:40:31;;;;;;;;;;;;;;;17.97;37.97;95652.13;10459373;28;2068;-61
2023/12/30 14:45:31;;;;;;;;;;;;;;;17.95;37.84;95643.72;10441456;28;1914;-60
2023/12/30 14:50:31;;;;;;;;;;;;;;;17.94;37.84;95648.16;10462847;28;1978;-60
2023/12/30 14:55:32;;;;;;;;;;;;;;;17.93;37.83;95649.22;10455451;28;1978;-61
2023/12/30 15:00:32;;;;;;;;;;;;;;;17.91;37.91;95653.91;10453328;28;1990;-61
2023/12/30 15:05:32;;;;;;;;;;;;;;;17.89;37.83;95651.56;10451864;28;1886;-61
2023/12/30 15:10:33;;;;;;;;;;;;;;;17.88;37.80;95642.13;10453669;28;1948;-61
2023/12/30 15:15:33;;;;;;;;;;;;;;;17.88;37.87;95642.13;10451654;28;1883;-60
2023/12/30 15:20:34;;;;;;;;;;;;;;;17.85;37.89;95641.84;10456576;28;2283;-59
2023/12/30 15:25:35;;;;;;;;;;;;;;;17.83;37.68;95636.88;10454635;28;1946;-61
2023/12/30 15:30:35;;;;;;;;;;;;;;;17.84;37.75;95637.66;10455427;28;2089;-59
2023/12/30 15:35:37;;;;;;;;;;;;;;;17.83;37.65;95631.63;10454351;28;2033;-59
2023/12/30 15:40:40;;;;;;;;;;;;;;;17.82;37.65;95630.06;10455712;28;1957;-61
2023/12/30 15:45:40;;;;;;;;;;;;;;;17.83;37.69;95636.06;10456615;28;2100;-61
2023/12/30 15:50:41;;;;;;;;;;;;;;;17.79;37.71;95630.56;10461530;28;2042;-61
2023/12/30 15:55:41;;;;;;;;;;;;;;;17.79;37.63;95633.19;10455800;28;2069;-61
2023/12/30 16:00:41;;;;;;;;;;;;;;;17.78;37.60;95638.69;10466079;28;2107;-61
2023/12/30 16:05:42;;;;;;;;;;;;;;;17.77;37.65;95635.28;10457160;28;2107;-61
2023/12/30 16:10:42;;;;;;;;;;;;;;;17.76;37.71;95636.31;10457447;28;2064;-61
2023/12/30 16:15:43;;;;;;;;;;;;;;;17.78;37.34;95642.09;10446803;28;1964;-61
2023/12/30 16:20:43;;;;;;;;;;;;;;;17.75;37.63;95634.75;10447598;28;1918;-59
2023/12/30 16:25:43;;;;;;;;;;;;;;;17.76;37.51;95643.41;10459806;28;2113;-61
2023/12/30 16:30:43;;;;;;;;;;;;;;;17.76;37.52;95636.31;10464373;28;2032;-61
2023/12/30 16:35:44;;;;;;;;;;;;;;;17.74;37.44;95629.78;10458704;28;1867;-61
2023/12/30 16:40:44;;;;;;;;;;;;;;;17.74;37.38;95627.91;10460644;28;1927;-61
2023/12/30 16:45:44;;;;;;;;;;;;;;;17.74;37.53;95629.78;10451167;28;2021;-61
2023/12/30 16:50:44;;;;;;;;;;;;;;;17.72;37.52;95624.00;10459984;28;2499;-61
2023/12/30 16:55:45;;;;;;;;;;;;;;;17.71;37.49;95623.22;10466258;28;2044;-61
2023/12/30 17:00:47;;;;;;;;;;;;;;;17.72;37.41;95626.63;10461847;28;2024;-62
2023/12/30 17:05:47;;;;;;;;;;;;;;;17.71;37.35;95628.44;10459778;28;2034;-59
2023/12/30 17:10:50;;;;;;;;;;;;;;;17.71;37.22;95632.91;10455113;28;1962;-61
2023/12/30 17:15:50;;;;;;;;;;;;;;;17.68;37.43;95628.19;10463425;28;5099;-60
2023/12/30 17:20:50;;;;;;;;;;;;;;;17.69;37.18;95638.41;10457578;28;2143;-59
2023/12/30 17:25:51;;;;;;;;;;;;;;;17.69;37.33;95643.66;10457467;28;2204;-61
2023/12/30 17:30:51;;;;;;;;;;;;;;;17.68;37.14;95639.44;10457831;28;2032;-61
2023/12/30 17:35:51;;;;;;;;;;;;;;;17.68;37.37;95638.66;10454449;28;1975;-61
2023/12/30 17:40:52;;;;;;;;;;;;;;;17.66;37.32;95633.66;10459458;28;2041;-61
2023/12/30 17:45:52;;;;;;;;;;;;;;;17.67;37.22;95632.63;10457478;28;2401;-62
2023/12/30 17:50:53;;;;;;;;;;;;;;;17.66;37.33;95635.53;10455523;28;1981;-61
2023/12/30 17:55:53;;;;;;;;;;;;;;;17.66;37.27;95636.28;10459629;28;1926;-61
2023/12/30 18:00:54;;;;;;;;;;;;;;;17.65;37.15;95626.88;10461759;28;2007;-62
2023/12/30 18:05:54;;;;;;;;;;;;;;;17.67;37.25;95637.88;10458815;28;2061;-61
2023/12/30 18:10:54;;;;;;;;;;;;;;;17.66;37.13;95635.53;10459482;28;2026;-61
2023/12/30 18:15:55;;;;;;;;;;;;;;;17.64;37.23;95629.75;10455929;28;5030;-61
2023/12/30 18:20:55;;;;;;;;;;;;;;;17.63;37.26;95623.72;10458897;28;2086;-61
2023/12/30 18:25:56;;;;;;;;;;;;;;;17.63;37.25;95621.09;10455843;28;2107;-62
2023/12/30 18:30:56;;;;;;;;;;;;;;;17.63;37.06;95623.72;10455315;28;1977;-59
2023/12/30 18:35:56;;;;;;;;;;;;;;;17.63;37.20;95615.06;10451643;28;2088;-61
2023/12/30 18:40:57;;;;;;;;;;;;;;;17.61;37.15;95615.31;10451023;28;2313;-61
2023/12/30 18:45:59;;;;;;;;;;;;;;;17.62;37.32;95616.88;10452414;28;1882;-61
2023/12/30 18:50:59;;;;;;;;;;;;;;;17.60;37.07;95618.97;10452854;28;2016;-60
2023/12/30 18:56:03;;;;;;;;;;;;;;;17.61;37.06;95612.69;10445977;28;2022;-60
2023/12/30 19:01:03;;;;;;;;;;;;;;;17.60;37.06;95611.09;10453355;28;2274;-61
2023/12/30 19:06:03;;;;;;;;;;;;;;;17.60;36.98;95605.88;10457962;28;2049;-61
2023/12/30 19:11:03;;;;;;;;;;;;;;;17.58;37.13;95605.34;10448464;28;1919;-60
2023/12/30 19:16:04;;;;;;;;;;;;;;;17.59;36.99;95598.25;10451793;28;2048;-61
2023/12/30 19:21:04;;;;;;;;;;;;;;;17.58;37.07;95597.47;10447243;28;1953;-61
2023/12/30 19:26:04;;;;;;;;;;;;;;;17.58;37.02;95594.84;10449977;28;2108;-61
2023/12/30 19:31:04;;;;;;;;;;;;;;;17.58;36.99;95597.47;10446333;28;2005;-61
2023/12/30 19:36:05;;;;;;;;;;;;;;;17.56;37.13;95591.69;10448916;28;2045;-60
2023/12/30 19:41:05;;;;;;;;;;;;;;;17.55;36.98;95584.91;10442869;28;2161;-61
2023/12/30 19:46:07;;;;;;;;;;;;;;;17.56;36.84;95578.59;10451772;28;2008;-61
2023/12/30 19:51:07;;;;;;;;;;;;;;;17.55;36.91;95577.03;10461001;28;2105;-60
2023/12/30 19:56:08;;;;;;;;;;;;;;;17.54;36.85;95580.69;10442706;28;2029;-61
2023/12/30 20:01:14;;;;;;;;;;;;;;;17.55;36.87;95571.78;10457361;28;2006;-61
2023/12/30 20:06:14;;;;;;;;;;;;;;;17.55;37.00;95574.41;10453758;28;2010;-61
2023/12/30 20:11:14;;;;;;;;;;;;;;;17.54;36.94;95575.44;10453597;28;2124;-61
2023/12/30 20:16:15;;;;;;;;;;;;;;;17.53;36.84;95563.41;10457162;28;2085;-61
2023/12/30 20:21:15;;;;;;;;;;;;;;;17.52;37.02;95556.56;10455070;28;2108;-61
2023/12/30 20:26:15;;;;;;;;;;;;;;;17.53;36.92;95552.91;10419713;28;1956;-61
2023/12/30 20:31:19;;;;;;;;;;;;;;;17.52;36.81;95550.53;10420584;28;2013;-61
2023/12/30 20:36:19;;;;;;;;;;;;;;;17.50;36.88;95548.19;10419276;28;2141;-61
2023/12/30 20:41:20;;;;;;;;;;;;;;;17.51;36.72;95544.53;10418342;28;2104;-61
2023/12/30 20:46:20;;;;;;;;;;;;;;;17.50;36.82;95536.91;10417032;28;1995;-61
2023/12/30 20:51:20;;;;;;;;;;;;;;;17.49;36.77;95532.69;10413182;28;1954;-61
2023/12/30 20:56:20;;;;;;;;;;;;;;;17.49;36.88;95532.69;10417813;28;1918;-60
2023/12/30 21:01:21;;;;;;;;;;;;;;;17.48;36.87;95533.72;10417658;28;2005;-61
2023/12/30 21:06:21;;;;;;;;;;;;;;;17.48;36.81;95529.28;10417805;28;2107;-60
2023/12/30 21:11:21;;;;;;;;;;;;;;;17.46;36.90;95520.88;10414557;28;1900;-60
2023/12/30 21:16:23;;;;;;;;;;;;;;;17.46;36.70;95515.66;10410454;28;2164;-61
2023/12/30 21:21:23;;;;;;;;;;;;;;;17.46;36.79;95509.63;10423811;28;2045;-61
2023/12/30 21:26:25;;;;;;;;;;;;;;;17.44;36.94;95503.84;10458351;28;2002;-61
2023/12/30 21:31:28;;;;;;;;;;;;;;;17.44;36.78;95491.53;10457646;28;1992;-61
2023/12/30 21:36:28;;;;;;;;;;;;;;;17.43;36.82;95492.59;10454180;28;2001;-61
2023/12/30 21:41:30;;;;;;;;;;;;;;;17.43;36.76;95489.19;10461787;28;2053;-61
2023/12/30 21:46:31;;;;;;;;;;;;;;;17.41;36.78;95481.59;10435408;28;1992;-61
2023/12/30 21:51:33;;;;;;;;;;;;;;;17.40;36.81;95474.75;10438888;28;2033;-61
2023/12/30 21:56:33;;;;;;;;;;;;;;;17.40;36.79;95472.16;10451718;28;2010;-60
2023/12/30 22:01:34;;;;;;;;;;;;;;;17.38;36.65;95468.19;10450803;28;2061;-61
2023/12/30 22:06:34;;;;;;;;;;;;;;;17.38;36.86;95462.97;10450524;28;2044;-61
2023/12/30 22:11:34;;;;;;;;;;;;;;;17.36;36.76;95458.00;10448858;28;1996;-60
2023/12/30 22:16:37;;;;;;;;;;;;;;;17.36;36.82;95459.81;10450331;28;2064;-61
2023/12/30 22:21:37;;;;;;;;;;;;;;;17.35;36.82;95458.25;10436321;28;2037;-61
2023/12/30 22:26:37;;;;;;;;;;;;;;;17.34;37.02;95448.81;10435179;28;2002;-61
2023/12/30 22:31:40;;;;;;;;;;;;;;;17.34;36.70;95443.56;10454478;28;1995;-61
2023/12/30 22:36:40;;;;;;;;;;;;;;;17.33;36.90;95432.28;10454504;28;2005;-60
2023/12/30 22:41:41;;;;;;;;;;;;;;;17.32;36.79;95435.97;10445699;28;2445;-60
2023/12/30 22:46:41;;;;;;;;;;;;;;;17.32;36.79;95433.34;10452752;28;1982;-61
2023/12/30 22:51:48;;;;;;;;;;;;;;;17.32;36.83;95419.47;10436835;28;2085;-61
2023/12/30 22:56:48;;;;;;;;;;;;;;;17.30;36.81;95404.03;10454023;28;2052;-60
2023/12/30 23:01:51;;;;;;;;;;;;;;;17.30;36.84;95396.16;10452343;28;1967;-61
2023/12/30 23:06:51;;;;;;;;;;;;;;;17.30;36.68;95395.38;10454047;28;2007;-61
2023/12/30 23:11:51;;;;;;;;;;;;;;;17.29;36.75;95386.72;10452163;28;1970;-61
2023/12/30 23:16:51;;;;;;;;;;;;;;;17.28;36.60;95382.53;10447997;28;2132;-61
2023/12/30 23:21:52;;;;;;;;;;;;;;;17.28;36.73;95385.16;10446676;28;2171;-61
2023/12/30 23:26:52;;;;;;;;;;;;;;;17.27;36.81;95367.09;10459867;28;2056;-62
2023/12/30 23:31:53;;;;;;;;;;;;;;;17.27;36.55;95361.84;10452548;28;2037;-60
2023/12/30 23:36:53;;;;;;;;;;;;;;;17.27;36.84;95348.75;10452998;28;2037;-60
2023/12/30 23:41:53;;;;;;;;;;;;;;;17.26;36.82;95328.84;10448306;28;2448;-60
2023/12/30 23:46:53;;;;;;;;;;;;;;;17.26;36.80;95318.34;10448344;28;2174;-60
2023/12/30 23:51:55;;;;;;;;;;;;;;;17.25;36.72;95314.94;10452920;28;1931;-60
2023/12/30 23:56:55;;;;;;;;;;;;;;;17.25;36.59;95303.69;10449953;28;2066;-60
